Time;durP1;ratioP1;P1;durP2;ratioP2;P2;SDS_P1;SDS_P2;PMS_P1;PMS_P2;Temp;Humidity;BMP_temperature;BMP_pressure;BME280_temperature;BME280_humidity;BME280_pressure;Samples;Min_cycle;Max_cycle;Signal;HPM_P1;HPM_P2
2021/07/22 00:00:10;;;;;;;7.77;5.57;;;17.00;99.90;;;;;;5035572;28;20181;-66
2021/07/22 00:02:35;;;;;;;4.60;4.20;;;17.00;99.90;;;;;;5033960;28;20228;-66
2021/07/22 00:05:01;;;;;;;5.07;4.60;;;17.00;99.90;;;;;;5035169;28;20409;-67
2021/07/22 00:07:28;;;;;;;4.97;4.17;;;17.10;99.90;;;;;;5034691;28;20201;-67
2021/07/22 00:09:54;;;;;;;6.37;4.40;;;17.00;99.90;;;;;;5035176;28;20495;-67
2021/07/22 00:12:20;;;;;;;5.20;4.40;;;17.00;99.90;;;;;;5020239;28;20510;-67
2021/07/22 00:14:45;;;;;;;4.70;3.63;;;17.00;99.90;;;;;;5015109;28;20580;-67
2021/07/22 00:17:11;;;;;;;4.27;3.93;;;17.00;99.90;;;;;;5014870;28;20417;-67
2021/07/22 00:19:37;;;;;;;5.47;3.80;;;17.00;99.90;;;;;;5015074;28;20218;-67
2021/07/22 00:22:03;;;;;;;5.63;4.47;;;16.90;99.90;;;;;;5015262;28;20170;-67
2021/07/22 00:24:29;;;;;;;8.43;4.57;;;16.80;99.90;;;;;;5014993;28;20481;-67
2021/07/22 00:26:55;;;;;;;6.70;5.20;;;16.80;99.90;;;;;;5027027;28;20453;-67
2021/07/22 00:29:21;;;;;;;5.00;4.50;;;16.80;99.90;;;;;;5034534;28;20211;-66
2021/07/22 00:31:47;;;;;;;4.50;3.93;;;16.80;99.90;;;;;;5034500;28;20179;-67
2021/07/22 00:34:13;;;;;;;7.67;4.40;;;16.80;99.90;;;;;;5033682;28;20424;-66
2021/07/22 00:36:39;;;;;;;6.07;4.37;;;16.70;99.90;;;;;;5027068;28;20505;-67
2021/07/22 00:39:04;;;;;;;5.20;4.70;;;16.70;99.90;;;;;;5014748;28;20207;-67
2021/07/22 00:41:30;;;;;;;4.50;3.80;;;16.70;99.90;;;;;;5014589;28;20175;-68
2021/07/22 00:43:57;;;;;;;4.90;3.77;;;16.60;99.90;;;;;;5014592;28;20199;-67
2021/07/22 00:46:22;;;;;;;8.97;4.00;;;16.60;99.90;;;;;;5014983;28;20946;-67
2021/07/22 00:48:49;;;;;;;6.23;4.20;;;16.50;99.90;;;;;;5014135;28;20199;-67
2021/07/22 00:51:14;;;;;;;5.17;4.47;;;16.50;99.90;;;;;;5019552;28;20174;-67
2021/07/22 00:53:40;;;;;;;4.77;3.67;;;16.50;99.90;;;;;;5034369;28;20401;-67
2021/07/22 00:56:06;;;;;;;4.87;4.17;;;16.50;99.90;;;;;;5034322;28;20178;-68
2021/07/22 00:58:32;;;;;;;5.37;3.60;;;16.50;99.90;;;;;;5033641;28;20198;-67
2021/07/22 01:00:58;;;;;;;5.77;4.50;;;16.40;99.90;;;;;;5034127;28;20401;-67
2021/07/22 01:03:24;;;;;;;7.07;5.33;;;16.40;99.90;;;;;;5034396;28;20396;-67
2021/07/22 01:05:49;;;;;;;5.10;4.60;;;16.40;99.90;;;;;;5029756;28;20167;-67
2021/07/22 01:08:15;;;;;;;4.13;3.50;;;16.40;99.90;;;;;;5013837;28;20202;-67
2021/07/22 01:10:41;;;;;;;5.13;4.13;;;16.40;99.90;;;;;;5014255;28;20262;-67
2021/07/22 01:13:06;;;;;;;6.87;4.20;;;16.40;99.90;;;;;;5014251;28;20218;-67
2021/07/22 01:15:33;;;;;;;4.80;3.80;;;16.40;99.90;;;;;;5014175;28;20182;-67
2021/07/22 01:17:59;;;;;;;5.47;4.50;;;16.30;99.90;;;;;;5013602;28;20568;-66
2021/07/22 01:20:26;;;;;;;7.67;4.67;;;16.30;99.90;;;;;;5016616;28;20436;-66
2021/07/22 01:22:53;;;;;;;6.13;5.50;;;16.20;99.90;;;;;;5033842;28;20177;-67
2021/07/22 01:25:20;;;;;;;5.33;4.83;;;16.20;99.90;;;;;;5032547;28;20915;-66
2021/07/22 01:27:46;;;;;;;5.50;5.00;;;16.20;99.90;;;;;;5033125;28;20436;-67
2021/07/22 01:30:13;;;;;;;6.10;4.40;;;16.20;99.90;;;;;;5033463;28;20433;-67
2021/07/22 01:32:40;;;;;;;5.73;4.40;;;16.20;99.90;;;;;;5033662;28;20798;-67
2021/07/22 01:35:06;;;;;;;6.70;4.20;;;16.20;99.90;;;;;;5031270;28;20508;-66
2021/07/22 01:37:32;;;;;;;5.83;5.00;;;16.20;99.90;;;;;;5013340;28;20461;-67
2021/07/22 01:39:58;;;;;;;6.90;4.47;;;16.20;99.90;;;;;;5013647;28;20409;-67
2021/07/22 01:42:24;;;;;;;6.37;4.43;;;16.10;99.90;;;;;;5012453;28;20421;-67
2021/07/22 01:44:49;;;;;;;4.37;3.97;;;16.10;99.90;;;;;;5013708;28;20178;-67
2021/07/22 01:47:15;;;;;;;6.20;4.13;;;16.10;99.90;;;;;;5012768;28;20668;-67
2021/07/22 01:49:41;;;;;;;5.83;4.30;;;16.00;99.90;;;;;;5013578;28;20631;-67
2021/07/22 01:52:07;;;;;;;6.13;4.40;;;15.90;99.90;;;;;;5013727;28;20544;-67
2021/07/22 01:54:33;;;;;;;5.33;4.83;;;15.90;99.90;;;;;;5013451;28;20173;-67
2021/07/22 01:57:02;;;;;;;4.37;3.97;;;15.90;99.90;;;;;;5013165;28;20186;-66
2021/07/22 01:59:38;;;;;;;4.53;3.63;;;15.90;99.90;;;;;;5013425;28;20468;-67
2021/07/22 02:02:05;;;;;;;4.37;3.90;;;15.80;99.90;;;;;;5013314;28;20811;-65
2021/07/22 02:04:31;;;;;;;4.00;3.60;;;15.70;99.90;;;;;;5013530;28;20856;-66
2021/07/22 02:06:57;;;;;;;4.90;4.40;;;15.70;99.90;;;;;;5013079;28;20468;-68
2021/07/22 02:09:23;;;;;;;4.40;3.87;;;15.60;99.90;;;;;;5013232;28;20502;-66
2021/07/22 02:11:50;;;;;;;5.30;4.80;;;15.60;99.90;;;;;;5013259;28;20422;-68
2021/07/22 02:14:15;;;;;;;6.90;5.17;;;15.50;99.90;;;;;;5012128;28;20923;-66
2021/07/22 02:16:41;;;;;;;6.43;4.67;;;15.60;99.90;;;;;;5023263;28;20428;-67
2021/07/22 02:19:07;;;;;;;8.43;4.93;;;15.50;99.90;;;;;;5032931;28;20216;-67
2021/07/22 02:21:33;;;;;;;5.03;4.40;;;15.50;99.90;;;;;;5033243;28;20417;-68
2021/07/22 02:23:59;;;;;;;7.43;4.60;;;15.50;99.90;;;;;;5033210;28;20192;-68
2021/07/22 02:26:25;;;;;;;5.13;3.93;;;15.50;99.90;;;;;;5031852;28;20847;-66
2021/07/22 02:28:54;;;;;;;6.43;4.30;;;15.50;99.90;;;;;;5032405;28;20200;-67
2021/07/22 02:31:20;;;;;;;5.53;4.40;;;15.50;99.90;;;;;;5020133;28;20200;-66
2021/07/22 02:33:45;;;;;;;7.90;4.83;;;15.40;99.90;;;;;;5013327;28;20409;-66
2021/07/22 02:36:12;;;;;;;5.00;4.50;;;15.40;99.90;;;;;;5013340;28;20677;-67
2021/07/22 02:38:37;;;;;;;6.57;4.33;;;15.40;99.90;;;;;;5012472;28;20305;-66
2021/07/22 02:41:06;;;;;;;5.43;4.93;;;15.40;99.90;;;;;;5013232;28;20480;-67
2021/07/22 02:43:33;;;;;;;4.30;3.90;;;15.40;99.90;;;;;;5013155;28;20264;-66
2021/07/22 02:46:04;;;;;;;4.33;3.93;;;15.50;99.90;;;;;;5011950;28;20436;-66
2021/07/22 02:48:30;;;;;;;9.60;4.80;;;15.50;99.90;;;;;;5012226;28;20519;-67
2021/07/22 02:50:58;;;;;;;4.90;4.40;;;15.40;99.90;;;;;;5013155;28;20427;-67
2021/07/22 02:53:24;;;;;;;4.80;4.40;;;15.30;99.90;;;;;;5014769;28;20181;-66
2021/07/22 02:55:53;;;;;;;7.50;5.00;;;15.40;99.90;;;;;;5032946;28;20411;-66
2021/07/22 02:58:19;;;;;;;10.07;5.27;;;15.30;99.90;;;;;;5033257;28;20657;-66
2021/07/22 03:00:44;;;;;;;6.87;4.90;;;15.30;99.90;;;;;;5035059;28;20458;-66
2021/07/22 03:03:10;;;;;;;4.87;4.37;;;15.30;99.90;;;;;;5036444;28;20176;-67
2021/07/22 03:05:35;;;;;;;13.00;5.13;;;15.30;99.90;;;;;;5036516;28;20184;-66
2021/07/22 03:08:02;;;;;;;5.27;4.80;;;15.30;99.90;;;;;;5034602;28;20197;-67
2021/07/22 03:10:28;;;;;;;13.90;5.40;;;15.30;99.90;;;;;;5016155;28;20636;-67
2021/07/22 03:12:53;;;;;;;6.83;5.40;;;15.20;99.90;;;;;;5016092;28;20412;-67
2021/07/22 03:15:19;;;;;;;6.43;4.53;;;15.20;99.90;;;;;;5016074;28;20632;-67
2021/07/22 03:17:45;;;;;;;6.40;5.17;;;15.20;99.90;;;;;;5015502;28;20230;-68
2021/07/22 03:20:11;;;;;;;5.20;4.70;;;15.10;99.90;;;;;;5016119;28;20253;-67
2021/07/22 03:22:37;;;;;;;4.70;4.00;;;15.20;99.90;;;;;;5016536;28;20163;-67
2021/07/22 03:25:03;;;;;;;6.03;4.73;;;15.10;99.90;;;;;;5035160;28;20417;-67
2021/07/22 03:27:29;;;;;;;5.47;3.53;;;15.10;99.90;;;;;;5035491;28;20412;-66
2021/07/22 03:29:55;;;;;;;4.93;4.43;;;15.10;99.90;;;;;;5035691;28;20483;-67
2021/07/22 03:32:20;;;;;;;5.90;5.30;;;15.10;99.90;;;;;;5035565;28;20169;-67
2021/07/22 03:34:46;;;;;;;5.27;4.57;;;15.10;99.90;;;;;;5035920;28;20243;-67
2021/07/22 03:37:11;;;;;;;5.70;4.60;;;15.00;99.90;;;;;;5035150;28;20196;-67
2021/07/22 03:39:37;;;;;;;4.07;3.63;;;15.00;99.90;;;;;;5017207;28;20604;-67
2021/07/22 03:42:05;;;;;;;4.80;4.30;;;14.90;99.90;;;;;;5025535;28;20297;-67
2021/07/22 03:44:31;;;;;;;4.97;4.33;;;14.90;99.90;;;;;;5035756;28;20347;-68
2021/07/22 03:46:56;;;;;;;5.13;4.37;;;14.90;99.90;;;;;;5035105;28;20435;-67
2021/07/22 03:49:22;;;;;;;5.60;4.50;;;14.90;99.90;;;;;;5035383;28;20700;-67
2021/07/22 03:51:48;;;;;;;6.33;4.30;;;14.90;99.90;;;;;;5035409;28;20169;-68
2021/07/22 03:54:14;;;;;;;5.50;4.80;;;15.00;99.90;;;;;;5035101;28;20192;-67
2021/07/22 03:56:40;;;;;;;4.80;4.40;;;14.90;99.90;;;;;;5026766;28;20263;-68
2021/07/22 03:59:06;;;;;;;4.60;4.20;;;14.90;99.90;;;;;;5015219;28;20460;-66
2021/07/22 04:01:32;;;;;;;4.83;3.97;;;14.90;99.90;;;;;;5015509;28;20420;-67
2021/07/22 04:03:57;;;;;;;5.83;3.70;;;15.00;99.90;;;;;;5015304;28;20406;-67
2021/07/22 04:06:23;;;;;;;4.70;3.47;;;15.00;99.90;;;;;;5014032;28;20166;-67
2021/07/22 04:08:49;;;;;;;5.03;4.33;;;15.00;99.90;;;;;;5030118;28;20205;-67
2021/07/22 04:11:14;;;;;;;5.40;4.63;;;15.00;99.90;;;;;;5034659;28;20644;-67
2021/07/22 04:13:40;;;;;;;5.57;4.10;;;15.00;99.90;;;;;;5034921;28;20172;-66
2021/07/22 04:16:06;;;;;;;5.40;4.67;;;15.00;99.90;;;;;;5035170;28;20196;-66
2021/07/22 04:18:31;;;;;;;6.67;4.40;;;15.10;99.90;;;;;;5034408;28;20198;-67
2021/07/22 04:20:59;;;;;;;5.20;4.60;;;15.10;99.90;;;;;;5034819;28;20193;-66
2021/07/22 04:23:25;;;;;;;4.63;4.13;;;15.10;99.90;;;;;;5020258;28;20181;-69
2021/07/22 04:25:51;;;;;;;4.93;4.20;;;15.20;99.90;;;;;;5015061;28;20759;-67
2021/07/22 04:28:16;;;;;;;5.57;5.03;;;15.20;99.90;;;;;;5014464;28;20194;-67
2021/07/22 04:30:42;;;;;;;5.03;4.30;;;15.20;99.90;;;;;;5014652;28;20189;-67
2021/07/22 04:33:08;;;;;;;4.70;3.60;;;15.30;99.90;;;;;;5014890;28;20255;-67
2021/07/22 04:35:33;;;;;;;5.50;4.50;;;15.30;99.90;;;;;;5014843;28;20181;-67
2021/07/22 04:37:59;;;;;;;4.53;4.13;;;15.40;99.90;;;;;;5026646;28;20212;-67
2021/07/22 04:40:25;;;;;;;6.23;5.00;;;15.50;99.90;;;;;;5034559;28;20759;-67
2021/07/22 04:42:51;;;;;;;7.13;5.40;;;15.60;99.90;;;;;;5018349;28;20504;-68
2021/07/22 04:45:16;;;;;;;3.97;3.57;;;15.80;99.90;;;;;;5013498;28;20171;-68
2021/07/22 04:47:43;;;;;;;4.13;3.83;;;15.90;99.90;;;;;;5014120;28;20226;-67
2021/07/22 04:50:09;;;;;;;4.43;4.03;;;16.00;99.90;;;;;;5014932;28;20167;-66
2021/07/22 04:52:35;;;;;;;6.30;4.40;;;16.10;99.90;;;;;;5014485;28;20753;-68
2021/07/22 04:55:00;;;;;;;4.40;3.83;;;16.20;99.90;;;;;;5014541;28;20417;-66
2021/07/22 04:57:26;;;;;;;6.47;5.23;;;16.30;99.90;;;;;;5015421;28;20171;-68
2021/07/22 04:59:55;;;;;;;4.33;3.60;;;16.40;99.90;;;;;;5033038;28;20197;-66
2021/07/22 05:02:20;;;;;;;4.10;3.73;;;16.40;99.90;;;;;;5020128;28;20413;-67
2021/07/22 05:04:46;;;;;;;4.53;4.13;;;16.40;99.90;;;;;;5014173;28;20489;-67
2021/07/22 05:07:15;;;;;;;4.20;3.80;;;16.50;99.90;;;;;;5013855;28;20571;-67
2021/07/22 05:09:43;;;;;;;3.80;3.10;;;16.60;99.90;;;;;;5014314;28;20887;-67
2021/07/22 05:12:12;;;;;;;7.53;4.80;;;16.70;99.90;;;;;;5014366;28;20931;-66
2021/07/22 05:14:37;;;;;;;5.60;4.73;;;16.70;99.90;;;;;;5013951;28;20406;-65
2021/07/22 05:17:03;;;;;;;4.40;3.97;;;16.70;99.90;;;;;;5012656;28;20416;-66
2021/07/22 05:19:29;;;;;;;3.93;3.60;;;16.90;99.90;;;;;;5013940;28;20239;-66
2021/07/22 05:21:54;;;;;;;4.80;4.30;;;17.10;99.90;;;;;;5012619;28;20175;-67
2021/07/22 05:24:20;;;;;;;5.80;4.47;;;17.20;99.90;;;;;;5013484;28;20165;-67
2021/07/22 05:26:49;;;;;;;5.13;4.63;;;17.40;99.90;;;;;;5013274;28;20647;-67
2021/07/22 05:29:15;;;;;;;7.70;4.87;;;17.50;99.90;;;;;;5008836;28;20316;-66
2021/07/22 05:31:43;;;;;;;7.20;4.10;;;17.60;99.90;;;;;;4993740;28;20437;-64
2021/07/22 05:34:09;;;;;;;4.60;3.97;;;17.80;99.90;;;;;;4994312;28;20426;-67
2021/07/22 05:36:37;;;;;;;5.33;4.00;;;17.80;99.90;;;;;;4993018;28;20410;-67
2021/07/22 05:39:03;;;;;;;5.20;4.20;;;17.90;99.90;;;;;;5007924;28;20546;-67
2021/07/22 05:41:30;;;;;;;4.63;4.10;;;17.90;99.90;;;;;;4993238;28;20410;-67
2021/07/22 05:43:55;;;;;;;5.90;4.53;;;18.00;99.90;;;;;;5013287;28;20432;-65
2021/07/22 05:46:22;;;;;;;6.67;4.77;;;18.00;99.90;;;;;;5013040;28;20408;-66
2021/07/22 05:48:48;;;;;;;4.47;3.57;;;18.10;99.90;;;;;;5012661;28;20255;-66
2021/07/22 05:51:14;;;;;;;5.30;4.80;;;18.20;99.90;;;;;;5012050;28;20420;-67
2021/07/22 05:53:39;;;;;;;5.00;4.60;;;18.20;99.90;;;;;;5013592;28;20416;-65
2021/07/22 05:56:05;;;;;;;5.47;4.57;;;18.40;99.90;;;;;;5013587;28;20435;-66
2021/07/22 05:58:31;;;;;;;4.50;4.10;;;18.50;99.90;;;;;;5030661;28;20288;-66
2021/07/22 06:00:57;;;;;;;4.50;3.93;;;18.90;99.90;;;;;;5033027;28;20174;-66
2021/07/22 06:03:23;;;;;;;4.20;3.83;;;19.20;99.90;;;;;;5033123;28;20914;-65
2021/07/22 06:05:49;;;;;;;4.70;3.83;;;19.60;99.90;;;;;;5033255;28;20397;-67
2021/07/22 06:08:15;;;;;;;5.67;4.07;;;19.90;99.90;;;;;;5032758;28;20190;-65
2021/07/22 06:10:41;;;;;;;5.40;4.10;;;20.20;99.90;;;;;;5033381;28;20264;-66
2021/07/22 06:13:07;;;;;;;10.37;4.77;;;20.40;99.90;;;;;;5015936;28;20951;-65
2021/07/22 06:15:33;;;;;;;7.40;5.33;;;20.50;99.90;;;;;;5013225;28;20771;-66
2021/07/22 06:17:59;;;;;;;7.60;4.63;;;20.40;99.90;;;;;;5012654;28;20544;-66
2021/07/22 06:20:25;;;;;;;6.60;4.53;;;20.20;99.90;;;;;;5013297;28;20500;-65
2021/07/22 06:22:50;;;;;;;7.83;5.30;;;20.20;99.90;;;;;;5013293;28;20182;-66
2021/07/22 06:25:16;;;;;;;4.60;4.20;;;20.20;99.90;;;;;;5013229;28;20171;-65
2021/07/22 06:27:43;;;;;;;5.33;4.83;;;20.40;99.90;;;;;;5013803;28;20637;-66
2021/07/22 06:30:09;;;;;;;5.10;4.60;;;20.50;99.90;;;;;;5013127;28;20191;-66
2021/07/22 06:32:35;;;;;;;5.77;4.60;;;20.60;99.90;;;;;;5013457;28;20449;-66
2021/07/22 06:35:01;;;;;;;11.53;5.00;;;20.90;99.90;;;;;;5017205;28;20919;-66
2021/07/22 06:37:27;;;;;;;5.50;4.80;;;21.10;99.90;;;;;;5016552;28;20517;-66
2021/07/22 06:39:52;;;;;;;9.57;4.50;;;21.10;99.90;;;;;;5017114;28;20198;-65
2021/07/22 06:42:18;;;;;;;6.47;4.73;;;21.00;99.90;;;;;;5030839;28;20185;-67
2021/07/22 06:44:44;;;;;;;4.30;3.90;;;21.10;99.90;;;;;;5036662;28;20168;-66
2021/07/22 06:47:09;;;;;;;6.90;4.93;;;21.20;99.90;;;;;;5036446;28;20178;-67
2021/07/22 06:49:35;;;;;;;5.87;5.27;;;21.30;99.90;;;;;;5021951;28;20205;-66
2021/07/22 06:52:01;;;;;;;8.97;5.57;;;21.60;99.90;;;;;;5036370;28;20225;-67
2021/07/22 06:54:26;;;;;;;7.33;5.13;;;21.90;99.90;;;;;;5036197;28;20180;-67
2021/07/22 06:56:52;;;;;;;8.60;6.20;;;21.90;99.90;;;;;;5025727;28;20189;-67
2021/07/22 06:59:17;;;;;;;7.20;5.07;;;22.00;99.90;;;;;;5016450;28;20686;-68
2021/07/22 07:01:43;;;;;;;6.30;4.70;;;22.00;99.90;;;;;;5036528;28;20690;-65
2021/07/22 07:04:09;;;;;;;5.80;4.90;;;22.10;99.90;;;;;;5036223;28;20240;-64
2021/07/22 07:06:36;;;;;;;6.30;5.13;;;22.10;99.90;;;;;;5020577;28;20186;-66
2021/07/22 07:09:04;;;;;;;4.97;4.50;;;22.20;99.90;;;;;;5016400;28;20210;-66
2021/07/22 07:11:30;;;;;;;6.40;5.80;;;22.30;99.90;;;;;;5016272;28;20421;-63
2021/07/22 07:13:55;;;;;;;6.27;5.67;;;22.20;99.90;;;;;;5016456;28;20380;-64
2021/07/22 07:16:21;;;;;;;6.80;4.93;;;22.10;99.90;;;;;;5036129;28;20174;-64
2021/07/22 07:18:47;;;;;;;5.90;4.97;;;22.20;99.90;;;;;;5035290;28;20664;-65
2021/07/22 07:21:13;;;;;;;6.10;4.60;;;22.50;99.90;;;;;;5035707;28;20174;-67
2021/07/22 07:23:39;;;;;;;6.03;5.43;;;22.70;99.70;;;;;;5035519;28;20167;-63
2021/07/22 07:26:08;;;;;;;6.33;4.53;;;22.90;98.90;;;;;;5035923;28;20624;-65
2021/07/22 07:28:34;;;;;;;5.33;4.83;;;23.10;98.50;;;;;;5035354;28;20202;-66
2021/07/22 07:30:59;;;;;;;6.67;4.37;;;23.20;97.70;;;;;;5015936;28;20819;-63
2021/07/22 07:33:27;;;;;;;7.80;4.70;;;23.30;97.70;;;;;;5015830;28;20183;-65
2021/07/22 07:35:53;;;;;;;5.03;4.23;;;23.40;97.40;;;;;;5015836;28;20250;-66
2021/07/22 07:38:19;;;;;;;6.10;4.53;;;23.50;97.60;;;;;;5015192;28;20520;-65
2021/07/22 07:40:45;;;;;;;5.10;4.63;;;23.80;97.50;;;;;;5015945;28;20793;-64
2021/07/22 07:43:18;;;;;;;4.03;3.73;;;23.90;97.40;;;;;;5015613;28;20171;-62
2021/07/22 07:45:44;;;;;;;7.30;5.33;;;23.90;97.50;;;;;;5032295;28;20834;-64
2021/07/22 07:48:10;;;;;;;5.40;4.67;;;24.20;97.50;;;;;;5034946;28;20438;-67
2021/07/22 07:50:36;;;;;;;5.07;4.57;;;24.70;96.70;;;;;;5035233;28;20383;-68
2021/07/22 07:53:16;;;;;;;5.87;5.37;;;25.40;95.80;;;;;;5035454;28;20738;-67
2021/07/22 07:55:42;;;;;;;5.60;4.73;;;26.40;94.60;;;;;;5032134;28;20379;-66
2021/07/22 07:58:08;;;;;;;5.13;4.63;;;27.50;93.90;;;;;;5033163;28;20460;-66
2021/07/22 08:00:34;;;;;;;5.50;5.00;;;28.60;90.40;;;;;;5035247;28;20395;-66
2021/07/22 08:03:00;;;;;;;5.43;4.93;;;29.60;87.70;;;;;;5035062;28;20249;-66
2021/07/22 08:05:26;;;;;;;6.30;5.73;;;30.80;84.00;;;;;;5035225;28;20811;-67
2021/07/22 08:07:52;;;;;;;5.00;4.60;;;31.50;77.70;;;;;;5034580;28;20194;-68
2021/07/22 08:10:17;;;;;;;5.70;5.20;;;31.90;76.20;;;;;;5035050;28;20245;-66
2021/07/22 08:12:43;;;;;;;6.43;5.37;;;32.30;75.00;;;;;;5033149;28;20189;-67
2021/07/22 08:15:10;;;;;;;6.10;5.40;;;32.90;71.40;;;;;;5034764;28;20228;-66
2021/07/22 08:17:36;;;;;;;5.63;5.23;;;33.20;69.10;;;;;;5034233;28;20182;-68
2021/07/22 08:20:05;;;;;;;6.10;5.03;;;33.50;68.90;;;;;;5034731;28;20437;-66
2021/07/22 08:22:32;;;;;;;5.63;5.20;;;33.60;66.60;;;;;;5034995;28;20170;-69
2021/07/22 08:24:58;;;;;;;5.03;4.63;;;33.70;64.90;;;;;;5034743;28;20417;-66
2021/07/22 08:27:28;;;;;;;6.73;4.80;;;33.30;65.40;;;;;;5017305;28;20429;-65
2021/07/22 08:29:55;;;;;;;6.27;5.77;;;33.60;64.20;;;;;;5014280;28;20444;-65
2021/07/22 08:32:20;;;;;;;5.07;4.67;;;34.20;64.10;;;;;;5014199;28;20487;-66
2021/07/22 08:34:46;;;;;;;5.43;5.03;;;35.00;62.70;;;;;;5020341;28;20792;-63
2021/07/22 08:37:12;;;;;;;5.37;4.97;;;35.00;60.80;;;;;;5034215;28;20529;-62
2021/07/22 08:39:39;;;;;;;5.90;5.40;;;35.20;59.70;;;;;;5034358;28;20548;-63
2021/07/22 08:42:10;;;;;;;5.03;4.70;;;35.50;60.00;;;;;;5017947;28;20559;-62
2021/07/22 08:44:37;;;;;;;5.70;5.20;;;35.80;58.90;;;;;;5014782;28;20524;-62
2021/07/22 08:47:05;;;;;;;6.23;5.30;;;36.00;58.50;;;;;;5023830;28;20420;-62
2021/07/22 08:49:32;;;;;;;6.00;5.50;;;36.50;57.20;;;;;;5034447;28;20514;-63
2021/07/22 08:51:59;;;;;;;5.90;5.23;;;37.00;56.80;;;;;;5034535;28;20775;-63
2021/07/22 08:54:26;;;;;;;5.57;5.17;;;37.20;56.30;;;;;;5034258;28;20910;-63
2021/07/22 08:56:56;;;;;;;6.13;5.53;;;37.20;56.60;;;;;;5033783;28;20749;-62
2021/07/22 08:59:25;;;;;;;5.50;5.10;;;36.70;56.20;;;;;;5033865;28;20515;-63
2021/07/22 09:01:52;;;;;;;5.83;5.43;;;36.30;56.10;;;;;;5033854;28;20421;-62
2021/07/22 09:04:18;;;;;;;6.73;6.13;;;35.80;56.30;;;;;;5034108;28;20420;-62
2021/07/22 09:06:44;;;;;;;5.63;5.23;;;36.00;57.00;;;;;;5033700;28;20879;-63
2021/07/22 09:09:15;;;;;;;6.70;5.57;;;36.00;57.20;;;;;;5033995;28;20192;-63
2021/07/22 09:11:57;;;;;;;4.30;4.00;;;35.50;56.60;;;;;;5034052;28;20189;-63
2021/07/22 09:14:24;;;;;;;6.90;6.40;;;36.20;55.90;;;;;;5034034;28;20509;-63
2021/07/22 09:16:50;;;;;;;6.00;5.60;;;37.10;55.40;;;;;;5020506;28;20983;-61
2021/07/22 09:19:41;;;;;;;6.67;6.17;;;37.70;54.70;;;;;;5013899;28;20430;-63
2021/07/22 09:22:09;;;;;;;6.10;5.70;;;38.00;53.50;;;;;;5014217;28;20745;-61
2021/07/22 09:24:48;;;;;;;6.00;5.60;;;37.80;53.10;;;;;;5028418;28;20496;-62
2021/07/22 09:27:33;;;;;;;6.00;5.50;;;37.60;53.20;;;;;;5033203;28;20405;-62
2021/07/22 09:30:00;;;;;;;5.70;5.20;;;37.40;53.20;;;;;;5033885;28;20429;-63
2021/07/22 09:32:33;;;;;;;5.77;5.37;;;37.20;53.00;;;;;;5013908;28;20424;-61
2021/07/22 09:35:13;;;;;;;5.90;5.30;;;36.80;54.30;;;;;;5013737;28;20501;-63
2021/07/22 09:37:44;;;;;;;4.97;4.60;;;37.00;53.80;;;;;;5014212;28;20429;-63
2021/07/22 09:40:14;;;;;;;9.17;8.40;;;37.50;55.10;;;;;;5013757;28;20413;-61
2021/07/22 09:42:47;;;;;;;5.97;5.47;;;38.00;53.10;;;;;;5012765;28;20942;-62
2021/07/22 09:45:15;;;;;;;5.67;5.27;;;37.70;53.70;;;;;;5014157;28;20404;-62
2021/07/22 09:47:41;;;;;;;5.57;5.07;;;38.00;53.40;;;;;;5013188;28;20402;-64
2021/07/22 09:50:13;;;;;;;6.13;5.70;;;38.10;51.60;;;;;;5013704;28;20406;-62
2021/07/22 09:52:40;;;;;;;5.97;5.50;;;38.50;51.30;;;;;;5013818;28;20179;-62
2021/07/22 09:55:23;;;;;;;5.33;4.93;;;38.80;49.80;;;;;;5013672;28;20428;-62
2021/07/22 09:57:56;;;;;;;5.63;5.23;;;38.70;47.70;;;;;;5013146;28;20508;-63
2021/07/22 10:00:23;;;;;;;4.70;4.40;;;38.30;48.20;;;;;;5013637;28;20394;-62
2021/07/22 10:02:51;;;;;;;5.20;4.80;;;38.00;48.80;;;;;;5013663;28;20417;-63
2021/07/22 10:05:21;;;;;;;5.23;4.83;;;37.80;48.90;;;;;;5013595;28;20417;-64
2021/07/22 10:07:48;;;;;;;5.70;5.33;;;37.50;49.80;;;;;;4993993;28;20458;-62
2021/07/22 10:10:15;;;;;;;5.50;5.03;;;37.30;51.10;;;;;;4997595;28;20759;-62
2021/07/22 10:12:50;;;;;;;5.50;5.10;;;37.10;49.20;;;;;;4998480;28;20455;-63
2021/07/22 10:15:16;;;;;;;5.63;5.20;;;36.70;50.20;;;;;;4997737;28;20437;-62
2021/07/22 10:17:45;;;;;;;5.97;5.47;;;36.20;51.50;;;;;;4997197;28;20398;-63
2021/07/22 10:20:11;;;;;;;5.17;4.77;;;36.60;50.80;;;;;;4998899;28;20984;-62
2021/07/22 10:22:38;;;;;;;5.80;5.37;;;36.60;49.60;;;;;;5017106;28;20497;-62
2021/07/22 10:25:10;;;;;;;5.63;5.23;;;36.60;50.20;;;;;;5035666;28;20166;-63
2021/07/22 10:27:41;;;;;;;8.97;5.30;;;36.70;50.10;;;;;;5036327;28;20396;-63
2021/07/22 10:30:09;;;;;;;5.20;4.80;;;36.70;52.00;;;;;;5036897;28;20444;-62
2021/07/22 10:32:36;;;;;;;5.97;5.47;;;36.50;50.40;;;;;;5036892;28;20428;-63
2021/07/22 10:35:03;;;;;;;5.20;4.80;;;36.30;49.80;;;;;;5036075;28;20415;-62
2021/07/22 10:37:28;;;;;;;4.70;4.40;;;36.20;49.30;;;;;;5036365;28;20406;-62
2021/07/22 10:40:28;;;;;;;4.57;4.27;;;35.70;51.00;;;;;;5035636;28;20412;-62
2021/07/22 10:42:53;;;;;;;5.07;4.67;;;35.60;53.20;;;;;;5035635;28;20232;-62
2021/07/22 10:45:26;;;;;;;4.70;4.30;;;35.90;52.50;;;;;;5036759;28;20405;-62
2021/07/22 10:48:04;;;;;;;5.17;4.80;;;36.20;50.30;;;;;;5036093;28;20245;-64
2021/07/22 10:50:47;;;;;;;5.33;4.87;;;36.10;50.80;;;;;;5036434;28;20482;-63
2021/07/22 10:53:13;;;;;;;4.80;4.40;;;35.80;50.70;;;;;;5035466;28;20427;-61
2021/07/22 10:55:45;;;;;;;4.93;4.53;;;35.50;50.20;;;;;;5036758;28;20392;-62
2021/07/22 10:58:37;;;;;;;4.70;4.30;;;35.50;50.60;;;;;;5035928;28;20213;-62
2021/07/22 11:01:07;;;;;;;5.10;4.70;;;35.20;50.60;;;;;;5035515;28;20408;-63
2021/07/22 11:03:35;;;;;;;4.97;4.57;;;34.90;51.70;;;;;;5036171;28;20391;-61
2021/07/22 11:06:01;;;;;;;5.10;4.60;;;34.60;51.80;;;;;;5022504;28;20468;-63
2021/07/22 11:08:29;;;;;;;5.67;5.00;;;34.70;52.90;;;;;;5015636;28;20453;-62
2021/07/22 11:11:02;;;;;;;5.97;5.47;;;34.70;51.50;;;;;;5016492;28;20175;-63
2021/07/22 11:13:36;;;;;;;5.57;5.07;;;34.70;51.80;;;;;;5016373;28;20413;-62
2021/07/22 11:16:26;;;;;;;5.47;5.00;;;34.50;51.90;;;;;;5016356;28;20775;-64
2021/07/22 11:19:02;;;;;;;5.40;4.90;;;34.30;52.00;;;;;;5015528;28;20523;-63
2021/07/22 11:21:36;;;;;;;5.00;4.60;;;33.80;52.00;;;;;;5034871;28;20439;-62
2021/07/22 11:24:21;;;;;;;5.33;4.83;;;33.10;52.80;;;;;;5036074;28;20501;-62
2021/07/22 11:26:51;;;;;;;5.63;5.03;;;32.00;55.00;;;;;;5035527;28;20730;-62
2021/07/22 11:29:17;;;;;;;5.90;5.30;;;31.30;56.10;;;;;;5035527;28;20473;-61
2021/07/22 11:31:51;;;;;;;5.53;4.90;;;31.00;57.20;;;;;;5035568;28;20405;-62
2021/07/22 11:34:33;;;;;;;5.37;4.70;;;30.40;58.60;;;;;;5035340;28;20442;-62
2021/07/22 11:37:00;;;;;;;5.57;5.07;;;30.20;59.80;;;;;;5035594;28;20379;-62
2021/07/22 11:39:43;;;;;;;4.90;4.30;;;30.10;58.60;;;;;;5035593;28;20414;-62
2021/07/22 11:42:13;;;;;;;8.27;4.70;;;29.80;59.70;;;;;;5035445;28;20399;-62
2021/07/22 11:44:40;;;;;;;4.83;4.43;;;29.50;62.70;;;;;;5035625;28;20417;-64
2021/07/22 11:47:15;;;;;;;6.07;4.80;;;29.10;61.30;;;;;;5035370;28;20384;-62
2021/07/22 11:49:41;;;;;;;5.60;5.10;;;28.80;65.10;;;;;;5035123;28;20796;-63
2021/07/22 11:52:07;;;;;;;4.97;4.47;;;28.70;65.00;;;;;;5035528;28;20417;-63
2021/07/22 11:54:33;;;;;;;7.47;5.43;;;28.80;65.30;;;;;;5035503;28;20178;-62
2021/07/22 11:56:59;;;;;;;5.37;4.30;;;28.90;67.20;;;;;;5035205;28;20198;-62
2021/07/22 11:59:29;;;;;;;5.50;5.00;;;29.10;67.50;;;;;;5035293;28;20537;-62
2021/07/22 12:01:57;;;;;;;4.70;4.30;;;29.10;66.60;;;;;;5026176;28;20479;-62
2021/07/22 12:04:33;;;;;;;4.57;4.17;;;29.20;66.00;;;;;;5015414;28;20393;-62
2021/07/22 12:07:07;;;;;;;5.07;4.57;;;29.40;67.50;;;;;;5015115;28;20410;-61
2021/07/22 12:09:33;;;;;;;5.50;5.00;;;29.30;66.10;;;;;;5013925;28;20473;-63
2021/07/22 12:12:02;;;;;;;4.40;4.00;;;29.20;63.50;;;;;;5015333;28;20915;-63
2021/07/22 12:14:34;;;;;;;5.77;5.20;;;29.10;62.80;;;;;;5015118;28;20166;-63
2021/07/22 12:17:09;;;;;;;5.63;4.63;;;28.90;62.00;;;;;;5026010;28;20484;-62
2021/07/22 12:19:38;;;;;;;5.70;5.10;;;28.80;65.50;;;;;;5034629;28;20429;-63
2021/07/22 12:22:23;;;;;;;5.30;4.80;;;28.70;65.70;;;;;;5035151;28;20405;-63
2021/07/22 12:25:09;;;;;;;5.80;4.20;;;28.70;66.20;;;;;;5034851;28;20418;-63
2021/07/22 12:27:56;;;;;;;6.10;5.10;;;28.80;64.30;;;;;;5034347;28;20395;-64
2021/07/22 12:30:30;;;;;;;6.53;5.10;;;28.70;64.80;;;;;;5033789;28;20444;-64
2021/07/22 12:32:59;;;;;;;5.00;4.50;;;28.60;66.20;;;;;;5006214;28;20430;-65
2021/07/22 12:35:38;;;;;;;6.97;5.87;;;28.50;66.10;;;;;;4995546;28;20414;-62
2021/07/22 12:38:10;;;;;;;5.90;4.40;;;28.50;69.60;;;;;;4994733;28;20440;-63
2021/07/22 12:40:40;;;;;;;5.83;5.20;;;28.60;71.10;;;;;;4995740;28;20498;-63
2021/07/22 12:43:12;;;;;;;6.17;5.67;;;28.70;70.60;;;;;;4994930;28;20434;-63
2021/07/22 12:45:40;;;;;;;7.00;5.70;;;28.80;70.10;;;;;;5003868;28;20390;-62
2021/07/22 12:48:07;;;;;;;5.50;4.60;;;28.80;66.90;;;;;;5033592;28;20546;-63